Time;durP1;ratioP1;P1;durP2;ratioP2;P2;SDS_P1;SDS_P2;PMS_P1;PMS_P2;Temp;Humidity;BMP_temperature;BMP_pressure;BME280_temperature;BME280_humidity;BME280_pressure;Samples;Min_cycle;Max_cycle;Signal;HPM_P1;HPM_P2
2021/04/04 00:01:36;;;;;;;14.78;5.80;;;;;;;7.41;100.00;98545.43;1771399;80;20927;-66
2021/04/04 00:04:11;;;;;;;17.73;7.83;;;;;;;7.38;100.00;98544.13;1749640;81;21067;-67
2021/04/04 00:06:52;;;;;;;18.02;6.67;;;;;;;7.37;100.00;98556.81;1779064;79;21400;-67
2021/04/04 00:09:29;;;;;;;32.70;9.28;;;;;;;7.41;100.00;98556.37;1779298;79;21607;-66
2021/04/04 00:12:03;;;;;;;39.48;10.03;;;;;;;7.54;100.00;98552.38;1766175;81;20954;-67
2021/04/04 00:14:36;;;;;;;37.83;9.30;;;;;;;7.65;100.00;98543.19;1749878;81;21034;-67
2021/04/04 00:17:10;;;;;;;25.08;8.58;;;;;;;7.72;100.00;98540.09;1751922;80;21096;-66
2021/04/04 00:19:42;;;;;;;25.48;8.53;;;;;;;7.82;100.00;98545.73;1789262;80;22276;-66
2021/04/04 00:22:17;;;;;;;33.92;9.48;;;;;;;7.88;100.00;98529.50;1760037;79;21168;-66
2021/04/04 00:24:49;;;;;;;31.25;8.88;;;;;;;7.96;100.00;98532.09;1752071;81;21616;-65
2021/04/04 00:27:25;;;;;;;26.15;8.68;;;;;;;7.99;100.00;98542.58;1765258;80;21509;-67
2021/04/04 00:29:57;;;;;;;29.23;8.97;;;;;;;8.04;100.00;98546.08;1738723;81;21144;-65
2021/04/04 00:32:29;;;;;;;19.80;8.48;;;;;;;8.10;100.00;98554.36;1748511;81;21215;-66
2021/04/04 00:35:02;;;;;;;28.25;8.65;;;;;;;8.14;100.00;98556.09;1741877;81;20933;-65
2021/04/04 00:37:38;;;;;;;15.13;7.53;;;;;;;8.13;100.00;98558.29;1787816;80;20983;-66
2021/04/04 00:40:23;;;;;;;16.97;7.62;;;;;;;8.15;100.00;98559.15;1789202;79;21087;-66
2021/04/04 00:42:53;;;;;;;15.83;7.33;;;;;;;8.17;100.00;98559.58;1751548;81;21090;-66
2021/04/04 00:45:29;;;;;;;17.27;7.30;;;;;;;8.19;100.00;98559.13;1768919;81;21579;-68
2021/04/04 00:48:01;;;;;;;14.68;6.58;;;;;;;8.23;100.00;98561.29;1745443;81;21505;-67
2021/04/04 00:50:39;;;;;;;10.58;6.87;;;;;;;8.25;100.00;98563.91;1726270;82;21276;-67
2021/04/04 00:53:16;;;;;;;12.60;6.30;;;;;;;8.26;100.00;98558.64;1750555;81;21063;-66
2021/04/04 00:55:57;;;;;;;9.43;5.47;;;;;;;8.26;100.00;98563.02;1767530;78;21065;-67
2021/04/04 00:58:32;;;;;;;8.90;4.75;;;;;;;8.23;100.00;98555.16;1824176;78;21197;-67
2021/04/04 01:01:06;;;;;;;10.38;4.72;;;;;;;8.25;100.00;98551.64;1754977;81;20946;-67
2021/04/04 01:03:40;;;;;;;11.15;5.08;;;;;;;8.22;100.00;98558.23;1759273;81;21061;-66
2021/04/04 01:06:12;;;;;;;9.70;5.40;;;;;;;8.24;100.00;98564.79;1746080;81;21079;-66
2021/04/04 01:08:46;;;;;;;9.48;5.55;;;;;;;8.23;100.00;98563.05;1742603;81;21151;-63
2021/04/04 01:11:26;;;;;;;10.85;5.53;;;;;;;8.22;100.00;98567.42;1721010;81;21591;-63
2021/04/04 01:14:02;;;;;;;15.35;5.75;;;;;;;8.23;100.00;98565.23;1753061;80;20933;-63
2021/04/04 01:16:38;;;;;;;12.15;5.50;;;;;;;8.28;100.00;98563.89;1750972;80;20903;-63
2021/04/04 01:19:29;;;;;;;11.12;6.20;;;;;;;8.31;100.00;98568.68;1751149;82;21545;-63
2021/04/04 01:22:31;;;;;;;16.20;6.37;;;;;;;8.30;100.00;98570.88;1773040;79;21460;-64
2021/04/04 01:25:17;;;;;;;14.00;6.15;;;;;;;8.27;100.00;98566.95;1780950;79;21381;-63
2021/04/04 01:28:01;;;;;;;13.15;5.85;;;;;;;8.23;100.00;98573.55;1708852;81;21598;-63
2021/04/04 01:30:38;;;;;;;13.18;6.15;;;;;;;8.23;100.00;98575.73;1717210;83;21026;-63
2021/04/04 01:33:15;;;;;;;10.45;5.75;;;;;;;8.21;100.00;98575.75;1776444;79;21053;-63
2021/04/04 01:35:54;;;;;;;9.25;5.60;;;;;;;8.21;100.00;98575.75;1754080;80;21559;-63
2021/04/04 01:38:27;;;;;;;6.10;3.85;;;;;;;8.18;100.00;98582.34;1758199;79;21382;-63
2021/04/04 01:41:13;;;;;;;7.58;3.75;;;;;;;8.14;100.00;98579.30;1781686;79;21091;-63
2021/04/04 01:43:46;;;;;;;6.55;3.52;;;;;;;8.08;100.00;98574.52;1777713;79;20925;-63
2021/04/04 01:46:19;;;;;;;6.03;3.35;;;;;;;8.05;100.00;98575.84;1765657;80;21014;-63
2021/04/04 01:48:50;;;;;;;6.85;3.47;;;;;;;8.02;100.00;98576.70;1751691;80;21065;-64
2021/04/04 01:51:22;;;;;;;6.03;3.62;;;;;;;8.02;100.00;98580.64;1777553;79;21333;-63
2021/04/04 01:53:57;;;;;;;7.70;3.92;;;;;;;8.02;100.00;98581.95;1776918;79;21028;-63
2021/04/04 01:56:29;;;;;;;9.45;4.22;;;;;;;8.04;100.00;98588.11;1779476;79;21472;-63
2021/04/04 01:59:03;;;;;;;6.67;4.50;;;;;;;8.01;100.00;98582.84;1753473;80;21513;-63
2021/04/04 02:01:35;;;;;;;8.65;4.30;;;;;;;7.99;100.00;98584.59;1762998;80;20983;-64
2021/04/04 02:04:09;;;;;;;5.53;4.45;;;;;;;7.97;100.00;98581.55;1767961;80;21160;-63
2021/04/04 02:06:43;;;;;;;8.70;4.83;;;;;;;7.98;100.00;98583.30;1755850;80;20962;-64
2021/04/04 02:09:15;;;;;;;7.15;4.35;;;;;;;7.97;100.00;98589.42;1796984;78;20921;-63
2021/04/04 02:11:50;;;;;;;8.08;4.80;;;;;;;7.97;100.00;98585.05;1809536;78;21097;-64
2021/04/04 02:14:24;;;;;;;9.70;5.25;;;;;;;7.98;100.00;98588.11;1733479;82;21335;-63
2021/04/04 02:16:57;;;;;;;9.90;5.50;;;;;;;7.99;100.00;98590.29;1740581;82;21394;-63
2021/04/04 02:19:28;;;;;;;11.80;5.55;;;;;;;8.00;100.00;98590.72;1730325;81;21604;-63
2021/04/04 02:22:01;;;;;;;10.75;5.47;;;;;;;8.02;100.00;98587.65;1739352;81;21065;-63
2021/04/04 02:24:33;;;;;;;9.50;5.47;;;;;;;8.02;100.00;98591.59;1739366;81;20969;-63
2021/04/04 02:27:05;;;;;;;11.55;5.80;;;;;;;8.04;100.00;98593.77;1741505;79;20939;-63
2021/04/04 02:29:37;;;;;;;10.50;6.33;;;;;;;8.05;100.00;98592.48;1756851;80;22235;-64
2021/04/04 02:32:08;;;;;;;10.95;5.75;;;;;;;8.07;100.00;98590.72;1746732;80;21515;-63
2021/04/04 02:34:44;;;;;;;11.12;6.22;;;;;;;8.06;100.00;98588.09;1699670;83;21482;-63
2021/04/04 02:37:22;;;;;;;15.88;7.22;;;;;;;8.04;100.00;98588.52;1728688;83;21051;-63
2021/04/04 02:40:02;;;;;;;16.12;7.70;;;;;;;8.01;100.00;98588.09;1736978;81;21153;-63
2021/04/04 02:42:35;;;;;;;16.95;8.00;;;;;;;7.98;100.00;98598.61;1735910;81;21487;-63
2021/04/04 02:45:11;;;;;;;14.38;8.18;;;;;;;7.92;100.00;98593.83;1715564;81;21080;-62
2021/04/04 02:48:02;;;;;;;14.80;6.92;;;;;;;7.87;100.00;98599.09;1729478;81;21164;-64
2021/04/04 02:50:34;;;;;;;15.45;7.83;;;;;;;7.84;100.00;98601.73;1710465;82;21061;-63
2021/04/04 02:53:06;;;;;;;17.02;6.53;;;;;;;7.79;100.00;98603.52;1700541;82;21089;-63
2021/04/04 02:55:38;;;;;;;12.27;6.30;;;;;;;7.79;100.00;98605.70;1686461;82;22365;-63
2021/04/04 02:58:10;;;;;;;13.00;6.25;;;;;;;7.78;100.00;98603.08;1747931;80;21411;-64
2021/04/04 03:00:42;;;;;;;9.43;6.60;;;;;;;7.78;100.00;98607.02;1737732;82;20956;-64
2021/04/04 03:03:13;;;;;;;9.30;5.75;;;;;;;7.78;100.00;98613.58;1733367;82;21057;-63
2021/04/04 03:05:44;;;;;;;9.15;5.55;;;;;;;7.79;100.00;98609.63;1712978;83;20950;-64
2021/04/04 03:08:18;;;;;;;8.93;5.15;;;;;;;7.80;100.00;98610.06;1741125;81;21225;-63
2021/04/04 03:10:50;;;;;;;8.35;5.05;;;;;;;7.81;100.00;98624.06;1726538;81;20998;-63
2021/04/04 03:13:22;;;;;;;9.03;5.97;;;;;;;7.83;100.00;98627.13;1782055;79;21469;-63
2021/04/04 03:15:53;;;;;;;12.55;6.03;;;;;;;7.85;100.00;98629.74;1782435;79;20931;-63
2021/04/04 03:18:24;;;;;;;12.58;6.10;;;;;;;7.83;100.00;98632.81;1787692;79;21037;-63
2021/04/04 03:20:55;;;;;;;8.33;5.65;;;;;;;7.79;100.00;98628.02;1739234;81;21203;-63
2021/04/04 03:23:26;;;;;;;8.38;5.40;;;;;;;7.79;100.00;98637.64;1812108;78;21615;-63
2021/04/04 03:25:57;;;;;;;8.40;5.40;;;;;;;7.80;100.00;98631.07;1810101;79;21125;-63
2021/04/04 03:28:28;;;;;;;7.93;5.47;;;;;;;7.78;100.00;98626.27;1729042;82;21161;-63
2021/04/04 03:31:00;;;;;;;10.32;5.28;;;;;;;7.78;100.00;98630.64;1795174;79;21113;-63
2021/04/04 03:33:31;;;;;;;10.15;5.35;;;;;;;7.77;100.00;98632.84;1743121;82;21375;-63
2021/04/04 03:36:02;;;;;;;8.15;5.30;;;;;;;7.72;100.00;98628.04;1801369;79;21141;-64
2021/04/04 03:38:34;;;;;;;12.60;5.67;;;;;;;7.69;100.00;98629.36;1814092;79;21111;-63
2021/04/04 03:41:06;;;;;;;10.25;5.40;;;;;;;7.63;100.00;98625.44;1811791;79;20982;-63
2021/04/04 13:05:14;;;;;;;15.03;3.65;;;;;;;13.19;45.64;98722.70;1776418;78;22541;-67
2021/04/04 13:07:44;;;;;;;5.97;3.75;;;;;;;13.16;45.27;98731.55;1749812;82;21002;-67
2021/04/04 13:10:15;;;;;;;5.65;3.58;;;;;;;13.14;45.05;98725.42;1739818;80;21141;-63
2021/04/04 13:12:47;;;;;;;13.65;4.53;;;;;;;13.14;44.97;98724.55;1698700;83;21041;-64
2021/04/04 13:15:29;;;;;;;7.62;4.20;;;;;;;13.11;44.96;98723.30;1739194;80;20938;-62
2021/04/04 13:18:03;;;;;;;6.03;4.42;;;;;;;13.14;45.53;98720.13;1734379;80;20978;-65
2021/04/04 13:20:36;;;;;;;7.45;4.90;;;;;;;13.16;45.36;98720.09;1746857;80;21010;-63
2021/04/04 13:23:09;;;;;;;12.78;7.28;;;;;;;13.16;45.92;98718.77;1731597;81;21065;-65
2021/04/04 13:25:44;;;;;;;9.55;4.92;;;;;;;13.14;45.73;98712.63;1719738;82;20946;-66
2021/04/04 13:28:30;;;;;;;14.35;5.67;;;;;;;13.15;45.82;98707.75;1739600;80;20939;-62
2021/04/04 13:31:22;;;;;;;10.28;4.95;;;;;;;13.15;45.64;98711.27;1742199;80;21048;-66
2021/04/04 13:34:17;;;;;;;7.12;3.33;;;;;;;13.13;45.18;98708.24;1723595;82;21069;-63
2021/04/04 13:36:54;;;;;;;8.05;4.33;;;;;;;13.04;44.70;98712.42;1749563;82;21201;-64
2021/04/04 13:39:31;;;;;;;17.02;5.05;;;;;;;12.91;44.78;98707.41;1749556;80;21061;-63
2021/04/04 13:42:03;;;;;;;23.00;6.05;;;;;;;12.89;44.54;98709.68;1736608;82;21215;-63
2021/04/04 13:44:43;;;;;;;7.03;4.70;;;;;;;12.82;43.78;98706.75;1717763;82;20982;-62
2021/04/04 13:47:24;;;;;;;15.30;4.17;;;;;;;12.75;43.62;98715.25;1723339;82;21006;-67
2021/04/04 13:49:56;;;;;;;8.40;5.10;;;;;;;12.70;44.25;98717.57;1749085;80;21580;-65
2021/04/04 13:52:32;;;;;;;16.45;10.48;;;;;;;12.49;44.71;98705.22;1720340;82;21089;-63
2021/04/04 13:55:03;;;;;;;14.00;7.75;;;;;;;12.41;45.34;98711.13;1689783;82;21523;-66
2021/04/04 13:57:35;;;;;;;11.78;8.23;;;;;;;12.28;46.18;98715.76;1690457;83;20941;-66
2021/04/04 14:00:13;;;;;;;21.07;11.28;;;;;;;12.19;46.79;98710.66;1680716;84;21076;-63
2021/04/04 14:02:43;;;;;;;12.10;8.08;;;;;;;12.11;47.31;98715.22;1680651;85;22289;-63
2021/04/04 14:05:27;;;;;;;17.80;13.65;;;;;;;11.98;47.71;98715.03;1685317;84;21198;-62
2021/04/04 14:08:08;;;;;;;15.30;10.55;;;;;;;11.92;48.14;98710.73;1652469;84;21047;-61
2021/04/04 14:10:38;;;;;;;15.10;9.00;;;;;;;11.86;48.28;98712.17;1695692;82;21155;-62
2021/04/04 14:13:10;;;;;;;17.37;10.18;;;;;;;11.82;48.46;98707.80;1656903;84;21113;-61
2021/04/04 14:15:41;;;;;;;15.75;10.90;;;;;;;11.84;48.46;98711.33;1654957;84;21493;-61
2021/04/04 14:18:12;;;;;;;8.38;4.75;;;;;;;11.95;48.94;98713.32;1682026;84;21699;-62
2021/04/04 14:20:43;;;;;;;6.15;4.40;;;;;;;12.07;48.29;98715.30;1680373;84;21639;-64
2021/04/04 14:23:14;;;;;;;8.03;4.58;;;;;;;12.15;47.49;98710.74;1680071;84;20983;-64
2021/04/04 14:25:45;;;;;;;7.83;4.78;;;;;;;12.19;47.16;98715.94;1682772;84;21159;-64
2021/04/04 14:28:16;;;;;;;;;;;;;;;12.21;47.08;98707.52;1695536;82;21192;-64
2021/04/04 14:30:46;;;;;;;7.97;4.67;;;;;;;12.23;46.64;98718.08;1663243;84;20157;-60
2021/04/04 14:33:17;;;;;;;8.60;5.97;;;;;;;12.26;46.30;98707.44;1727140;82;20990;-61
2021/04/04 14:35:48;;;;;;;9.60;5.28;;;;;;;12.32;45.89;98715.73;1728697;81;21117;-60
2021/04/04 14:38:18;;;;;;;8.80;5.35;;;;;;;12.31;45.29;98717.50;1730089;82;21113;-62
2021/04/04 14:40:50;;;;;;;14.33;6.87;;;;;;;12.23;45.13;98724.69;1729289;82;21493;-59
2021/04/04 14:43:29;;;;;;;9.90;6.17;;;;;;;12.19;45.21;98717.27;1727164;82;20994;-61
2021/04/04 14:45:59;;;;;;;12.07;5.37;;;;;;;12.15;45.55;98725.28;1727281;82;21049;-61
2021/04/04 14:48:30;;;;;;;10.28;4.33;;;;;;;12.08;45.98;98723.66;1728333;82;21045;-60
2021/04/04 14:51:01;;;;;;;8.83;5.30;;;;;;;11.97;46.29;98723.41;1730243;82;21130;-61
2021/04/04 14:53:31;;;;;;;6.80;5.33;;;;;;;11.88;46.30;98724.91;1729393;82;21204;-62
2021/04/04 14:56:07;;;;;;;9.15;5.28;;;;;;;11.84;46.78;98721.89;1727568;81;21168;-62
2021/04/04 14:58:38;;;;;;;10.93;6.62;;;;;;;11.78;47.15;98725.06;1727796;82;21157;-61
2021/04/04 15:01:10;;;;;;;6.53;4.17;;;;;;;11.73;46.92;98726.44;1729331;81;21493;-62
2021/04/04 15:03:41;;;;;;;7.42;5.40;;;;;;;11.66;47.01;98724.80;1727857;81;21509;-61
2021/04/04 15:06:12;;;;;;;6.35;3.62;;;;;;;11.59;47.36;98718.75;1733661;82;21487;-61
2021/04/04 15:08:41;;;;;;;4.30;2.92;;;;;;;11.44;48.68;98717.69;1732891;82;21488;-60
2021/04/04 15:11:12;;;;;;;6.30;3.00;;;;;;;11.30;49.55;98719.65;1733632;82;21081;-60
2021/04/04 15:13:42;;;;;;;4.45;2.95;;;;;;;11.13;49.97;98726.96;1733939;80;21180;-61
2021/04/04 15:16:13;;;;;;;4.87;2.80;;;;;;;11.01;50.48;98719.66;1732281;82;21180;-68
2021/04/04 15:18:45;;;;;;;3.33;2.65;;;;;;;10.93;51.20;98724.62;1733699;80;21599;-61
2021/04/04 15:21:19;;;;;;;3.98;2.70;;;;;;;10.85;51.28;98724.70;1732849;80;21030;-61
2021/04/04 15:23:48;;;;;;;;;;;;;;;10.83;51.29;98732.20;1737077;80;20934;-61
2021/04/04 15:26:18;;;;;;;12.18;8.18;;;;;;;10.85;52.28;98731.30;1735785;82;20504;-63
2021/04/04 15:28:49;;;;;;;8.03;6.12;;;;;;;10.90;52.40;98722.02;1734442;80;21065;-65
2021/04/04 15:31:20;;;;;;;9.23;4.42;;;;;;;10.90;51.36;98722.89;1732737;82;21271;-63
2021/04/04 15:33:50;;;;;;;6.28;3.22;;;;;;;10.86;50.94;98721.16;1733940;82;21477;-63
2021/04/04 15:36:20;;;;;;;8.30;3.42;;;;;;;10.87;50.78;98723.35;1735929;80;21113;-63
2021/04/04 15:38:50;;;;;;;6.70;4.37;;;;;;;10.89;50.32;98725.11;1734663;80;20931;-63
2021/04/04 15:41:21;;;;;;;7.85;5.40;;;;;;;10.88;49.80;98725.09;1732871;82;21101;-61
2021/04/04 15:43:52;;;;;;;12.63;7.35;;;;;;;10.85;49.55;98728.66;1733192;80;21376;-61
2021/04/04 15:46:23;;;;;;;11.45;7.67;;;;;;;10.83;49.46;98722.52;1730102;80;21211;-65
2021/04/04 15:48:55;;;;;;;7.62;5.10;;;;;;;10.94;49.73;98719.77;1737262;82;21551;-64
2021/04/04 15:51:26;;;;;;;6.23;3.27;;;;;;;11.15;49.40;98731.32;1750048;80;21022;-67
2021/04/04 15:53:58;;;;;;;5.70;2.70;;;;;;;11.46;48.65;98729.55;1749396;80;21167;-66
2021/04/04 15:56:28;;;;;;;4.37;2.77;;;;;;;11.82;48.18;98734.69;1749094;80;21563;-67
2021/04/04 15:58:59;;;;;;;4.58;2.47;;;;;;;12.23;47.67;98729.52;1748924;80;21184;-67
2021/04/04 16:01:29;;;;;;;6.33;2.92;;;;;;;12.42;46.52;98726.55;1749118;80;21595;-67
2021/04/04 16:04:00;;;;;;;3.52;2.70;;;;;;;12.29;45.96;98726.75;1749773;80;21440;-68
2021/04/04 16:06:31;;;;;;;2.98;2.20;;;;;;;12.06;46.22;98731.62;1749877;80;21480;-67
2021/04/04 16:09:02;;;;;;;3.77;2.77;;;;;;;11.78;46.86;98735.63;1736415;82;21272;-67
2021/04/04 16:11:38;;;;;;;;;;;;;;;11.47;47.34;98735.25;1736657;81;21037;-68
2021/04/04 16:14:07;;;;;;;4.15;2.85;;;;;;;11.18;47.99;98740.52;1735351;82;20631;-67
2021/04/04 16:16:37;;;;;;;6.37;2.65;;;;;;;10.87;48.29;98739.19;1736769;80;21666;-63
2021/04/04 16:19:10;;;;;;;3.62;2.72;;;;;;;10.51;48.66;98741.42;1745408;82;21565;-65
2021/04/04 16:21:42;;;;;;;7.20;3.90;;;;;;;10.18;48.99;98751.85;1733317;80;21477;-64
2021/04/04 16:24:14;;;;;;;11.70;6.35;;;;;;;9.89;49.76;98752.13;1733055;82;20949;-63
2021/04/04 16:26:44;;;;;;;9.23;4.95;;;;;;;9.78;50.80;98755.30;1735856;80;21085;-64
2021/04/04 16:29:15;;;;;;;12.25;5.50;;;;;;;9.72;51.56;98756.68;1735785;80;21050;-64
2021/04/04 16:31:45;;;;;;;13.88;5.55;;;;;;;9.63;52.34;98752.37;1736088;80;22188;-64
2021/04/04 16:34:16;;;;;;;7.08;4.08;;;;;;;9.58;53.24;98755.93;1728279;82;21207;-58
2021/04/04 16:36:47;;;;;;;5.67;4.17;;;;;;;9.53;54.07;98757.73;1734641;80;21088;-63
2021/04/04 16:39:22;;;;;;;5.08;3.75;;;;;;;9.44;54.43;98754.25;1733614;82;21021;-64
2021/04/04 16:41:54;;;;;;;4.33;3.00;;;;;;;9.41;55.04;98760.86;1732826;82;21029;-64
2021/04/04 16:44:28;;;;;;;6.53;2.72;;;;;;;9.34;55.34;98761.79;1735178;82;20943;-63
2021/04/04 16:46:58;;;;;;;4.78;2.50;;;;;;;9.25;55.83;98759.23;1732929;80;21497;-63
2021/04/04 16:49:28;;;;;;;9.78;2.65;;;;;;;9.12;56.44;98762.38;1732127;80;20931;-63
2021/04/04 16:51:58;;;;;;;4.92;3.00;;;;;;;9.08;57.39;98766.36;1719911;82;20946;-63
2021/04/04 16:54:28;;;;;;;5.58;3.83;;;;;;;9.07;58.18;98764.17;1720709;82;20938;-68
2021/04/04 16:56:59;;;;;;;10.25;5.58;;;;;;;9.08;58.54;98771.63;1720760;82;21094;-67
2021/04/04 16:59:29;;;;;;;12.03;7.78;;;;;;;9.08;58.99;98762.41;1672155;84;21271;-61
2021/04/04 17:01:59;;;;;;;14.53;8.63;;;;;;;9.07;59.52;98770.75;1728383;80;21073;-66
2021/04/04 17:04:30;;;;;;;10.80;7.28;;;;;;;9.05;59.74;98767.70;1733224;80;21081;-67
2021/04/04 17:07:01;;;;;;;8.65;5.10;;;;;;;9.03;59.85;98766.83;1720759;81;20955;-65
2021/04/04 17:09:36;;;;;;;6.67;4.30;;;;;;;9.03;59.97;98773.41;1703030;81;21114;-67
2021/04/04 17:12:05;;;;;;;8.05;4.15;;;;;;;9.01;59.82;98771.23;1719941;82;22240;-65
2021/04/04 17:14:35;;;;;;;5.90;3.17;;;;;;;8.96;59.73;98770.34;1721586;81;21145;-66
2021/04/04 17:17:08;;;;;;;13.28;4.40;;;;;;;8.92;59.78;98769.94;1722231;81;21035;-67
2021/04/04 17:19:39;;;;;;;6.33;4.30;;;;;;;8.86;59.89;98769.53;1720524;81;21105;-66
2021/04/04 17:22:10;;;;;;;6.83;4.03;;;;;;;8.81;59.77;98762.11;1719104;82;21537;-66
2021/04/04 17:24:40;;;;;;;8.00;4.53;;;;;;;8.73;60.09;98772.66;1720285;81;21380;-66
2021/04/04 17:27:11;;;;;;;8.93;5.10;;;;;;;8.65;60.30;98776.21;1721963;82;21182;-66
2021/04/04 17:29:41;;;;;;;11.80;5.28;;;;;;;8.60;60.54;98773.60;1704906;81;21062;-67
2021/04/04 17:32:11;;;;;;;11.97;5.30;;;;;;;8.57;60.72;98773.62;1718984;82;21105;-65
2021/04/04 17:34:42;;;;;;;11.53;6.15;;;;;;;8.54;60.86;98774.07;1720390;82;21026;-68
2021/04/04 17:37:12;;;;;;;10.28;6.42;;;;;;;8.48;61.00;98767.92;1722764;82;21229;-67
2021/04/04 17:39:44;;;;;;;9.15;6.05;;;;;;;8.43;61.23;98771.45;1705847;81;21137;-72
2021/04/04 17:42:17;;;;;;;9.98;6.78;;;;;;;8.35;61.66;98762.72;1721091;82;21184;-70
2021/04/04 17:44:47;;;;;;;9.78;5.60;;;;;;;8.25;61.98;98767.10;1720456;82;20971;-71
2021/04/04 17:47:17;;;;;;;7.30;5.05;;;;;;;8.16;62.39;98768.44;1722493;82;21223;-71
2021/04/04 17:49:49;;;;;;;8.03;4.58;;;;;;;8.11;62.53;98767.58;1723087;82;21383;-71
2021/04/04 17:52:18;;;;;;;;;;;;;;;8.05;62.68;98771.09;1736611;81;20974;-70
2021/04/04 17:54:50;;;;;;;6.03;3.62;;;;;;;7.99;63.19;98772.39;1736219;82;20519;-70
2021/04/04 17:57:24;;;;;;;6.55;3.80;;;;;;;7.92;63.80;98775.91;1735530;82;21141;-70
2021/04/04 17:59:55;;;;;;;6.40;3.98;;;;;;;7.85;64.20;98777.67;1723007;81;21141;-67
2021/04/04 18:02:26;;;;;;;5.83;3.30;;;;;;;7.77;64.74;98778.11;1725804;81;21399;-69
2021/04/04 18:05:01;;;;;;;7.45;3.75;;;;;;;7.74;64.99;98778.55;1724648;82;21156;-69
2021/04/04 18:12:50;;;;;;;5.97;2.67;;;;;;;7.60;65.83;98777.25;1731029;82;21177;-66
2021/04/04 18:15:22;;;;;;;4.58;3.02;;;;;;;7.54;66.40;98778.09;1729886;82;21161;-66
2021/04/04 18:17:54;;;;;;;5.22;3.20;;;;;;;7.47;66.80;98772.84;1728104;81;21181;-67
2021/04/04 18:20:27;;;;;;;5.22;2.95;;;;;;;7.39;67.23;98770.22;1727868;81;21207;-66
2021/04/04 18:22:59;;;;;;;6.37;3.37;;;;;;;7.33;67.66;98768.91;1704078;82;21140;-63
2021/04/04 18:25:31;;;;;;;9.58;3.40;;;;;;;7.31;68.18;98776.34;1728581;81;21050;-62
2021/04/04 18:28:02;;;;;;;6.70;3.80;;;;;;;7.29;68.66;98779.40;1721205;81;21342;-61
2021/04/04 18:30:34;;;;;;;7.92;4.00;;;;;;;7.26;68.94;98775.03;1684279;82;20943;-61
2021/04/04 18:33:07;;;;;;;13.20;5.55;;;;;;;7.27;69.29;98778.09;1729825;82;21149;-64
2021/04/04 18:35:38;;;;;;;9.20;5.35;;;;;;;7.30;69.65;98779.40;1728638;82;21053;-64
2021/04/04 18:38:12;;;;;;;13.10;5.78;;;;;;;7.28;70.16;98778.96;1727606;82;21132;-66
2021/04/04 18:40:43;;;;;;;11.57;5.35;;;;;;;7.26;70.82;98777.21;1728298;81;21266;-65
2021/04/04 18:43:13;;;;;;;14.80;5.97;;;;;;;7.25;71.52;98782.45;1727510;82;21018;-65
2021/04/04 18:45:45;;;;;;;8.93;5.17;;;;;;;7.21;72.50;98785.95;1727747;82;21145;-68
2021/04/04 18:48:17;;;;;;;7.97;4.05;;;;;;;7.19;73.00;98781.14;1730213;80;20998;-67
2021/04/04 18:50:48;;;;;;;7.33;3.80;;;;;;;7.16;73.07;98788.56;1730490;82;21173;-67
2021/04/04 18:53:18;;;;;;;7.58;4.00;;;;;;;7.15;73.35;98793.38;1728223;82;21209;-66
2021/04/04 18:55:49;;;;;;;6.17;3.92;;;;;;;7.16;73.16;98789.87;1727740;82;21022;-66
2021/04/04 18:58:21;;;;;;;7.78;4.25;;;;;;;7.13;73.48;98787.69;1703547;82;21069;-66
2021/04/04 19:00:51;;;;;;;4.97;3.40;;;;;;;7.09;74.19;98781.53;1730837;82;20987;-65
2021/04/04 19:03:21;;;;;;;5.45;3.20;;;;;;;7.03;75.45;98781.95;1729285;82;21485;-66
2021/04/04 19:05:51;;;;;;;5.58;3.72;;;;;;;6.97;75.97;98785.88;1703942;82;21202;-67
2021/04/04 19:08:22;;;;;;;44.58;19.25;;;;;;;6.93;76.50;98791.11;1728756;81;21054;-65
2021/04/04 19:10:59;;;;;;;44.77;19.45;;;;;;;6.92;76.97;98795.04;1730571;82;21093;-66
2021/04/04 19:13:30;;;;;;;45.95;18.27;;;;;;;6.89;77.54;98796.34;1730535;82;21113;-65
2021/04/04 19:16:00;;;;;;;52.45;21.60;;;;;;;6.86;77.80;98802.45;1729316;82;21060;-69
2021/04/04 19:18:32;;;;;;;41.02;15.83;;;;;;;6.77;78.17;98802.42;1727850;82;21461;-67
2021/04/04 19:21:02;;;;;;;19.98;9.80;;;;;;;6.73;78.47;98803.72;1728861;82;21077;-68
2021/04/04 19:23:32;;;;;;;12.78;6.65;;;;;;;6.66;79.15;98800.20;1730781;82;21473;-67
2021/04/04 19:26:05;;;;;;;9.03;5.03;;;;;;;6.63;79.65;98802.38;1729808;82;20950;-68
2021/04/04 19:28:35;;;;;;;7.55;5.03;;;;;;;6.60;79.84;98801.45;1728179;82;21086;-65
2021/04/04 19:31:26;;;;;;;10.18;5.50;;;;;;;6.60;80.50;98805.39;1730046;82;21204;-67
2021/04/04 19:33:58;;;;;;;10.82;5.35;;;;;;;6.58;80.67;98805.38;1646960;85;21222;-67
2021/04/04 19:36:31;;;;;;;8.15;4.65;;;;;;;6.56;80.47;98804.50;1635877;86;21182;-67
2021/04/04 19:39:02;;;;;;;7.20;4.22;;;;;;;6.53;80.65;98799.68;1608220;89;21180;-66
2021/04/04 19:41:34;;;;;;;6.97;4.28;;;;;;;6.48;81.09;98798.35;1593697;88;21111;-66
2021/04/04 19:44:07;;;;;;;9.58;4.87;;;;;;;6.46;81.65;98807.08;1613427;87;21220;-66
2021/04/04 19:46:38;;;;;;;12.03;6.15;;;;;;;6.42;82.35;98806.62;1637978;86;21100;-64
2021/04/04 19:49:13;;;;;;;13.83;7.45;;;;;;;6.39;82.91;98798.74;1606581;88;21219;-65
2021/04/04 19:51:43;;;;;;;12.43;6.97;;;;;;;6.33;83.47;98802.64;1614674;87;21180;-67
2021/04/04 19:54:15;;;;;;;12.68;6.72;;;;;;;6.29;83.90;98808.30;1608721;88;21169;-65
2021/04/04 19:56:45;;;;;;;;;;;;;;;6.25;83.87;98798.24;1593213;88;21404;-65
2021/04/04 19:59:15;;;;;;;11.03;6.03;;;;;;;6.25;84.10;98801.30;1641426;87;20456;-65
2021/04/04 20:01:45;;;;;;;11.40;5.67;;;;;;;6.25;84.44;98805.22;1626595;87;20921;-65
2021/04/04 20:04:15;;;;;;;11.48;6.30;;;;;;;6.24;84.34;98796.92;1623310;86;21547;-66
2021/04/04 20:06:48;;;;;;;9.18;5.60;;;;;;;6.24;84.39;98801.73;1665136;85;21498;-67
2021/04/04 20:09:18;;;;;;;10.70;7.53;;;;;;;6.23;84.40;98801.72;1638241;87;21401;-64
2021/04/04 20:11:49;;;;;;;12.47;7.78;;;;;;;6.22;84.78;98800.84;1668957;85;21036;-65
2021/04/04 20:14:19;;;;;;;13.60;9.43;;;;;;;6.22;85.07;98796.92;1609351;87;21600;-67
2021/04/04 20:16:50;;;;;;;17.77;11.30;;;;;;;6.21;85.42;98799.53;1652074;86;21171;-66
2021/04/04 20:19:21;;;;;;;17.17;12.40;;;;;;;6.20;85.99;98797.78;1620362;87;21626;-63
2021/04/04 20:21:51;;;;;;;20.37;12.80;;;;;;;6.17;86.34;98802.56;1659927;85;21398;-66
2021/04/04 20:24:22;;;;;;;18.57;12.37;;;;;;;6.14;86.55;98802.52;1619645;88;21587;-66
2021/04/04 20:26:53;;;;;;;17.80;11.05;;;;;;;6.12;86.91;98809.91;1595322;89;21134;-64
2021/04/04 20:29:25;;;;;;;13.88;8.73;;;;;;;6.09;87.17;98808.16;1595598;88;21198;-66
2021/04/04 20:31:55;;;;;;;10.30;7.30;;;;;;;6.06;87.32;98806.83;1616293;87;20977;-66
2021/04/04 20:34:31;;;;;;;9.05;6.75;;;;;;;6.04;87.53;98807.25;1626175;88;22125;-65
2021/04/04 20:37:00;;;;;;;8.30;5.87;;;;;;;6.02;87.78;98800.25;1599372;87;21579;-65
2021/04/04 20:39:31;;;;;;;9.28;6.20;;;;;;;5.95;88.18;98804.58;1651275;87;21180;-66
2021/04/04 20:42:02;;;;;;;8.68;5.53;;;;;;;5.91;88.52;98796.27;1651342;87;21124;-69
2021/04/04 20:44:34;;;;;;;9.50;5.65;;;;;;;5.89;88.79;98801.48;1651697;86;21599;-67
2021/04/04 20:47:10;;;;;;;10.40;6.10;;;;;;;5.86;88.77;98803.17;1619871;87;21228;-66
2021/04/04 20:49:42;;;;;;;10.48;5.87;;;;;;;5.82;89.01;98800.09;1651518;87;20998;-66
2021/04/04 20:52:14;;;;;;;9.70;6.20;;;;;;;5.79;89.18;98797.45;1619793;87;21117;-66
2021/04/04 20:54:44;;;;;;;10.20;6.30;;;;;;;5.76;89.45;98800.05;1650773;87;21085;-68
2021/04/04 20:57:15;;;;;;;11.18;6.60;;;;;;;5.74;89.89;98793.92;1651369;87;21106;-67
2021/04/04 20:59:45;;;;;;;12.33;6.92;;;;;;;5.73;90.24;98798.28;1619623;87;21403;-67
2021/04/04 21:02:16;;;;;;;13.25;7.75;;;;;;;5.72;90.27;98798.27;1651199;87;21564;-66
2021/04/04 21:04:46;;;;;;;13.98;8.30;;;;;;;5.66;90.83;98798.64;1651252;86;21097;-67
2021/04/04 21:07:18;;;;;;;13.48;6.90;;;;;;;5.59;91.60;98794.22;1652719;86;20980;-67
2021/04/04 21:09:49;;;;;;;13.62;6.85;;;;;;;5.55;92.03;98796.37;1652743;86;21124;-61
2021/04/04 21:12:20;;;;;;;10.38;6.40;;;;;;;5.49;92.69;98797.63;1652612;86;22131;-61
2021/04/04 21:14:51;;;;;;;11.43;6.70;;;;;;;5.42;93.40;98797.56;1652093;86;21612;-69
2021/04/04 21:17:22;;;;;;;14.55;7.45;;;;;;;5.35;94.14;98801.86;1620701;87;21167;-68
2021/04/04 21:19:54;;;;;;;16.93;7.65;;;;;;;5.30;94.68;98797.03;1652191;86;20947;-66
2021/04/04 21:22:27;;;;;;;;;;;;;;;5.24;95.30;98791.74;1654888;87;21054;-70
2021/04/04 21:24:58;;;;;;;13.35;7.35;;;;;;;5.19;95.73;98795.59;1652630;87;21379;-68
2021/04/04 21:27:29;;;;;;;16.05;8.45;;;;;;;5.17;95.88;98797.73;1620818;87;21219;-69